Time;durP1;ratioP1;P1;durP2;ratioP2;P2;SDS_P1;SDS_P2;PMS_P1;PMS_P2;Temp;Humidity;BMP_temperature;BMP_pressure;BME280_temperature;BME280_humidity;BME280_pressure;Samples;Min_cycle;Max_cycle;Signal;HPM_P1;HPM_P2
2024/01/22 00:00:22;;;;;;;132.50;81.40;;;;;;;-4.15;100.00;100074.50;109534;1251;66724;-74
2024/01/22 00:03:10;;;;;;;132.40;82.30;;;;;;;-4.12;100.00;100082.86;109514;1251;61588;-74
2024/01/22 00:05:37;;;;;;;136.80;83.70;;;;;;;-4.09;100.00;100084.80;109478;1251;64819;-77
2024/01/22 00:08:04;;;;;;;132.30;82.50;;;;;;;-4.04;100.00;100081.55;109377;1251;59420;-74
2024/01/22 00:10:31;;;;;;;138.30;88.10;;;;;;;-4.01;100.00;100081.05;108536;1251;1002752;-75
2024/01/22 00:12:57;;;;;;;149.90;93.10;;;;;;;-3.98;100.00;100082.31;109538;1251;67150;-73
2024/01/22 00:15:24;;;;;;;160.10;96.00;;;;;;;-3.94;100.00;100083.02;109558;1250;61540;-75
2024/01/22 00:17:50;;;;;;;157.00;93.30;;;;;;;-3.91;100.00;100089.83;109517;1251;65151;-75
2024/01/22 00:20:17;;;;;;;184.30;104.00;;;;;;;-3.89;100.00;100094.01;109483;1254;59025;-75
2024/01/22 00:22:44;;;;;;;186.50;107.10;;;;;;;-3.87;100.00;100096.98;108529;1257;1002191;-74
2024/01/22 00:25:10;;;;;;;182.70;104.10;;;;;;;-3.85;100.00;100098.91;108753;1251;1003090;-74
2024/01/22 00:27:37;;;;;;;182.80;104.40;;;;;;;-3.83;100.00;100097.37;109505;1251;60123;-74
2024/01/22 00:30:04;;;;;;;170.30;100.30;;;;;;;-3.83;100.00;100104.83;109511;1250;63970;-76
2024/01/22 00:32:31;;;;;;;160.40;96.70;;;;;;;-3.81;100.00;100106.06;109528;1251;59195;-76
2024/01/22 00:34:57;;;;;;;136.90;87.00;;;;;;;-3.80;100.00;100105.55;109582;1251;59004;-75
2024/01/22 00:37:24;;;;;;;138.00;86.50;;;;;;;-3.81;100.00;100097.21;109489;1251;66417;-74
2024/01/22 00:39:55;;;;;;;139.60;88.10;;;;;;;-3.82;100.00;100095.48;109564;1251;61009;-75
2024/01/22 00:42:22;;;;;;;126.40;82.20;;;;;;;-3.84;100.00;100079.30;108760;1251;1002463;-74
2024/01/22 00:44:49;;;;;;;176.80;98.00;;;;;;;-3.87;100.00;100077.88;109497;1251;59047;-74
2024/01/22 00:47:16;;;;;;;189.60;103.80;;;;;;;-3.95;100.00;100087.88;108647;1253;1002418;-75
2024/01/22 00:49:43;;;;;;;220.50;109.10;;;;;;;-4.03;100.00;100085.02;109485;1254;66114;-74
2024/01/22 00:52:09;;;;;;;212.80;108.00;;;;;;;-4.12;100.00;100081.83;109485;1254;70494;-74
2024/01/22 00:54:36;;;;;;;166.70;94.10;;;;;;;-4.19;100.00;100088.34;109459;1252;64195;-75
2024/01/22 00:57:03;;;;;;;178.90;95.80;;;;;;;-4.27;100.00;100090.52;109491;1253;58947;-75
2024/01/22 00:59:29;;;;;;;180.00;98.60;;;;;;;-4.34;100.00;100089.73;109550;1253;59238;-75
2024/01/22 01:01:56;;;;;;;176.50;98.80;;;;;;;-4.44;100.00;100083.40;109463;1255;65980;-75
2024/01/22 01:04:22;;;;;;;195.60;102.80;;;;;;;-4.53;100.00;100080.69;109497;1253;60048;-76
2024/01/22 01:06:49;;;;;;;197.00;101.00;;;;;;;-4.60;100.00;100078.54;109467;1252;65132;-75
2024/01/22 01:09:15;;;;;;;181.50;97.60;;;;;;;-4.65;100.00;100077.42;109476;1254;59238;-73
2024/01/22 01:11:42;;;;;;;180.30;99.20;;;;;;;-4.68;100.00;100079.30;109436;1253;59117;-75
2024/01/22 01:14:08;;;;;;;189.00;102.80;;;;;;;-4.73;100.00;100069.20;108719;1254;1002869;-75
2024/01/22 01:16:35;;;;;;;194.40;104.70;;;;;;;-4.78;100.00;100072.59;108783;1253;1002949;-73
2024/01/22 01:19:01;;;;;;;187.40;101.50;;;;;;;-4.80;100.00;100069.09;109450;1253;59296;-74
2024/01/22 01:21:28;;;;;;;195.40;103.00;;;;;;;-4.83;100.00;100067.84;109484;1252;59302;-75
2024/01/22 01:23:55;;;;;;;182.80;101.70;;;;;;;-4.86;100.00;100062.63;109475;1252;59049;-74
2024/01/22 01:26:21;;;;;;;181.80;99.20;;;;;;;-4.88;100.00;100057.39;109499;1253;67135;-75
2024/01/22 01:28:48;;;;;;;184.60;104.10;;;;;;;-4.91;100.00;100051.28;109008;1256;61094;-75
2024/01/22 01:31:14;;;;;;;176.90;99.40;;;;;;;-4.95;100.00;100046.22;108902;1256;64241;-75
2024/01/22 01:33:41;;;;;;;173.50;96.90;;;;;;;-5.02;100.00;100038.85;109067;1256;59056;-75
2024/01/22 01:36:07;;;;;;;174.60;95.10;;;;;;;-5.08;100.00;100039.63;109110;1256;59056;-74
2024/01/22 01:38:34;;;;;;;161.10;90.70;;;;;;;-5.14;100.00;100041.64;108302;1260;1002308;-75
2024/01/22 01:41:01;;;;;;;167.10;92.70;;;;;;;-5.18;100.00;100040.89;109116;1256;60999;-75
2024/01/22 01:43:28;;;;;;;154.10;90.20;;;;;;;-5.19;100.00;100037.77;108195;1256;1002965;-76
2024/01/22 01:45:55;;;;;;;154.50;89.60;;;;;;;-5.16;100.00;100032.09;109055;1256;59459;-74
2024/01/22 01:48:22;;;;;;;164.70;94.30;;;;;;;-5.18;100.00;100027.21;109138;1256;59127;-74
2024/01/22 01:50:49;;;;;;;164.30;100.70;;;;;;;-5.19;100.00;100026.30;108962;1262;67089;-74
2024/01/22 01:53:16;;;;;;;171.00;99.10;;;;;;;-5.17;100.00;100021.50;109124;1256;60343;-74
2024/01/22 01:55:45;;;;;;;163.80;96.20;;;;;;;-5.14;100.00;100015.30;109026;1256;65424;-75
2024/01/22 01:58:13;;;;;;;157.90;94.20;;;;;;;-5.15;100.00;100007.33;109027;1256;59072;-75
2024/01/22 02:00:40;;;;;;;152.80;93.50;;;;;;;-5.16;100.00;99994.65;109398;1253;58899;-75
2024/01/22 02:03:09;;;;;;;159.00;97.90;;;;;;;-5.19;100.00;99984.58;109454;1253;65972;-75
2024/01/22 02:05:36;;;;;;;157.90;90.90;;;;;;;-5.19;100.00;99982.85;109505;1253;61064;-74
2024/01/22 02:08:02;;;;;;;164.00;97.30;;;;;;;-5.22;100.00;99982.64;109478;1252;64012;-74
2024/01/22 02:10:29;;;;;;;142.50;87.80;;;;;;;-5.23;100.00;99980.36;109430;1253;59362;-75
2024/01/22 02:12:55;;;;;;;151.20;93.60;;;;;;;-5.30;100.00;99975.27;109470;1253;59092;-75
2024/01/22 02:15:22;;;;;;;153.20;90.70;;;;;;;-5.34;100.00;99968.98;109453;1253;67218;-74
2024/01/22 02:17:49;;;;;;;146.40;90.10;;;;;;;-5.38;100.00;99961.65;109492;1254;59038;-76
2024/01/22 02:20:15;;;;;;;154.50;94.50;;;;;;;-5.42;100.00;99958.15;109440;1253;64087;-74
2024/01/22 02:22:42;;;;;;;161.00;97.60;;;;;;;-5.44;100.00;99951.54;109470;1254;59329;-75
2024/01/22 02:25:09;;;;;;;149.60;90.60;;;;;;;-5.45;100.00;99950.14;109472;1253;58851;-74
2024/01/22 02:27:35;;;;;;;155.10;92.70;;;;;;;-5.45;100.00;99950.99;109511;1254;65899;-73
2024/01/22 02:30:02;;;;;;;151.60;90.50;;;;;;;-5.45;100.00;99949.61;109416;1254;60133;-76
2024/01/22 02:32:29;;;;;;;157.40;93.10;;;;;;;-5.48;100.00;99942.30;109312;1252;65063;-74
2024/01/22 02:34:55;;;;;;;156.00;93.00;;;;;;;-5.50;100.00;99941.41;109477;1254;58977;-75
2024/01/22 02:37:22;;;;;;;163.90;96.40;;;;;;;-5.53;100.00;99937.04;109438;1252;58902;-75
2024/01/22 02:39:48;;;;;;;154.40;94.30;;;;;;;-5.55;100.00;99937.02;109489;1253;66975;-73
2024/01/22 02:42:15;;;;;;;172.10;102.30;;;;;;;-5.57;100.00;99937.68;109438;1253;60069;-74
2024/01/22 02:44:42;;;;;;;149.40;93.80;;;;;;;-5.56;100.00;99934.92;108671;1253;1015475;-74
2024/01/22 02:47:08;;;;;;;150.20;94.10;;;;;;;-5.54;100.00;99936.85;108746;1251;1002281;-75
2024/01/22 02:49:35;;;;;;;141.90;91.70;;;;;;;-5.55;100.00;99933.22;109545;1251;59022;-76
2024/01/22 02:52:02;;;;;;;150.20;97.60;;;;;;;-5.55;100.00;99938.23;109528;1251;66970;-78
2024/01/22 02:54:29;;;;;;;160.10;98.80;;;;;;;-5.55;100.00;99943.95;109525;1251;61482;-75
2024/01/22 02:56:55;;;;;;;148.80;96.60;;;;;;;-5.51;100.00;99942.44;109486;1251;64154;-74
2024/01/22 02:59:22;;;;;;;153.40;99.20;;;;;;;-5.44;100.00;99937.85;109496;1255;59013;-74
2024/01/22 03:01:49;;;;;;;163.50;96.60;;;;;;;-5.37;100.00;99937.76;109364;1251;59022;-73
2024/01/22 03:04:15;;;;;;;158.20;97.20;;;;;;;-5.33;100.00;99939.02;109515;1251;75953;-76
2024/01/22 03:06:42;;;;;;;157.20;100.60;;;;;;;-5.33;100.00;99935.39;109536;1251;59969;-74
2024/01/22 03:09:09;;;;;;;164.10;100.90;;;;;;;-5.32;100.00;99931.05;109564;1251;65090;-74
2024/01/22 03:11:35;;;;;;;157.40;101.30;;;;;;;-5.31;100.00;99930.73;109480;1251;59005;-74
2024/01/22 03:14:02;;;;;;;151.60;95.70;;;;;;;-5.30;100.00;99923.48;109520;1251;58864;-74
2024/01/22 03:16:28;;;;;;;161.50;100.40;;;;;;;-5.31;100.00;99919.46;109548;1251;65939;-77
2024/01/22 03:18:55;;;;;;;153.50;96.50;;;;;;;-5.36;100.00;99909.89;109567;1251;60156;-76
2024/01/22 03:21:21;;;;;;;155.10;96.20;;;;;;;-5.40;100.00;99909.31;109504;1251;64273;-75
2024/01/22 03:23:48;;;;;;;156.50;93.90;;;;;;;-5.46;100.00;99911.66;108782;1251;1002375;-74
2024/01/22 03:26:20;;;;;;;158.00;96.30;;;;;;;-5.54;100.00;99910.55;108544;1251;1002920;-75
2024/01/22 03:28:51;;;;;;;133.80;83.70;;;;;;;-5.61;100.00;99908.02;109537;1251;67138;-76
2024/01/22 03:31:25;;;;;;;150.40;92.60;;;;;;;-5.73;100.00;99898.52;109519;1251;60163;-73
2024/01/22 03:33:53;;;;;;;145.80;88.30;;;;;;;-5.83;100.00;99891.99;108588;1251;1002336;-75
2024/01/22 03:36:20;;;;;;;154.10;92.60;;;;;;;-5.90;100.00;99892.77;109518;1250;59123;-75
2024/01/22 03:38:47;;;;;;;155.30;96.40;;;;;;;-5.93;100.00;99893.77;108762;1251;1002104;-76
2024/01/22 03:41:14;;;;;;;148.00;93.30;;;;;;;-5.96;100.00;99896.18;109518;1251;59065;-73
2024/01/22 03:43:42;;;;;;;149.40;93.70;;;;;;;-5.98;100.00;99893.38;109316;1251;59056;-75
2024/01/22 03:46:11;;;;;;;144.60;95.20;;;;;;;-6.00;100.00;99890.94;109538;1251;65182;-76
2024/01/22 03:48:37;;;;;;;149.80;94.70;;;;;;;-6.04;100.00;99895.54;109520;1251;59147;-75
2024/01/22 03:51:05;;;;;;;154.40;97.30;;;;;;;-6.06;100.00;99892.40;109531;1251;58878;-75
2024/01/22 03:53:32;;;;;;;149.90;95.60;;;;;;;-6.06;100.00;99883.92;109543;1251;66664;-76
2024/01/22 03:56:02;;;;;;;156.10;97.30;;;;;;;-6.05;100.00;99878.06;109583;1250;61651;-77
2024/01/22 03:58:29;;;;;;;157.70;98.40;;;;;;;-6.06;100.00;99875.45;109494;1251;65012;-75
2024/01/22 04:00:56;;;;;;;158.10;100.60;;;;;;;-6.08;100.00;99872.83;109556;1251;59251;-74
2024/01/22 04:03:23;;;;;;;158.90;98.60;;;;;;;-6.09;100.00;99867.96;109357;1251;58976;-76
2024/01/22 04:05:49;;;;;;;149.60;95.70;;;;;;;-6.10;100.00;99871.75;109531;1251;67059;-75
2024/01/22 04:08:16;;;;;;;147.00;94.40;;;;;;;-6.14;100.00;99868.05;109563;1251;69614;-75
2024/01/22 04:10:42;;;;;;;146.00;93.10;;;;;;;-6.17;100.00;99869.92;109545;1251;65104;-75
2024/01/22 04:13:09;;;;;;;147.70;93.90;;;;;;;-6.21;100.00;99866.42;109505;1251;59317;-75
2024/01/22 04:15:36;;;;;;;150.60;97.50;;;;;;;-6.25;100.00;99867.73;109302;1254;59571;-75
2024/01/22 04:18:03;;;;;;;159.40;99.70;;;;;;;-6.27;100.00;99864.24;109312;1254;67133;-75
2024/01/22 04:20:30;;;;;;;154.00;93.70;;;;;;;-6.28;100.00;99865.44;109157;1254;60260;-78
2024/01/22 04:22:56;;;;;;;155.40;98.50;;;;;;;-6.29;100.00;99861.79;109296;1254;65152;-76
2024/01/22 04:25:23;;;;;;;140.90;87.30;;;;;;;-6.30;100.00;99864.72;109279;1254;59119;-75
2024/01/22 04:27:49;;;;;;;156.10;101.90;;;;;;;-6.33;100.00;99859.48;108581;1254;1002606;-75
2024/01/22 04:30:16;;;;;;;160.40;100.20;;;;;;;-6.31;100.00;99855.71;108542;1254;1002474;-74
2024/01/22 04:32:42;;;;;;;159.40;98.50;;;;;;;-6.25;100.00;99857.01;108363;1254;1002773;-73
2024/01/22 04:35:09;;;;;;;159.90;106.40;;;;;;;-6.19;100.00;99857.95;109315;1254;59918;-75
2024/01/22 04:37:36;;;;;;;168.90;106.30;;;;;;;-6.12;100.00;99853.21;109213;1253;58975;-75
2024/01/22 04:40:10;;;;;;;160.90;105.80;;;;;;;-6.06;100.00;99848.96;109319;1254;59035;-76
2024/01/22 04:42:37;;;;;;;169.60;108.70;;;;;;;-6.00;100.00;99850.27;109197;1256;66908;-75
2024/01/22 04:45:04;;;;;;;170.90;109.30;;;;;;;-5.94;100.00;99849.30;109202;1257;69930;-75
2024/01/22 04:47:31;;;;;;;167.70;106.40;;;;;;;-5.90;100.00;99840.51;109380;1252;64163;-76
2024/01/22 04:49:57;;;;;;;167.80;103.30;;;;;;;-5.88;100.00;99836.56;109472;1252;59066;-76
2024/01/22 04:52:24;;;;;;;162.40;104.20;;;;;;;-5.88;100.00;99833.61;109481;1253;60007;-75
2024/01/22 04:54:50;;;;;;;144.90;96.80;;;;;;;-5.90;100.00;99827.70;109424;1252;67479;-75
2024/01/22 04:57:17;;;;;;;152.80;92.50;;;;;;;-5.96;100.00;99830.43;109441;1254;61095;-73
2024/01/22 04:59:44;;;;;;;149.80;91.70;;;;;;;-6.05;100.00;99828.40;109436;1252;73858;-75
2024/01/22 05:02:10;;;;;;;145.90;90.90;;;;;;;-6.13;100.00;99828.30;109376;1253;59335;-75
2024/01/22 05:04:37;;;;;;;144.90;92.60;;;;;;;-6.16;100.00;99829.46;109478;1253;59022;-75
2024/01/22 05:07:03;;;;;;;148.80;93.70;;;;;;;-6.19;100.00;99832.02;109278;1254;66065;-75
2024/01/22 05:09:30;;;;;;;140.90;93.70;;;;;;;-6.20;100.00;99833.73;109415;1254;61182;-75
2024/01/22 05:11:56;;;;;;;141.80;95.40;;;;;;;-6.19;100.00;99828.58;108641;1252;1002567;-74
2024/01/22 05:14:23;;;;;;;146.50;94.70;;;;;;;-6.16;100.00;99824.45;109417;1254;58969;-76
2024/01/22 05:16:49;;;;;;;147.50;94.00;;;;;;;-6.15;100.00;99825.15;109416;1252;61482;-77
2024/01/22 05:19:16;;;;;;;146.80;92.80;;;;;;;-6.15;100.00;99827.23;109485;1252;67007;-76
2024/01/22 05:21:43;;;;;;;147.60;95.40;;;;;;;-6.17;100.00;99828.24;109319;1254;61038;-75
2024/01/22 05:24:09;;;;;;;152.40;96.30;;;;;;;-6.18;100.00;99825.82;109405;1253;65416;-77
2024/01/22 05:26:36;;;;;;;147.30;91.60;;;;;;;-6.18;100.00;99817.86;109411;1252;59238;-75
2024/01/22 05:29:02;;;;;;;151.00;90.00;;;;;;;-6.19;100.00;99810.95;109490;1252;61347;-74
2024/01/22 05:31:29;;;;;;;143.40;91.20;;;;;;;-6.20;100.00;99813.52;109437;1253;67180;-75
2024/01/22 05:33:55;;;;;;;143.70;93.70;;;;;;;-6.20;100.00;99814.71;109427;1253;61156;-75
2024/01/22 05:36:22;;;;;;;141.40;89.00;;;;;;;-6.22;100.00;99810.38;108659;1252;1003011;-76
2024/01/22 05:38:49;;;;;;;142.20;91.10;;;;;;;-6.25;100.00;99805.66;108656;1253;1002951;-75
2024/01/22 05:41:15;;;;;;;151.20;91.80;;;;;;;-6.27;100.00;99793.52;108595;1253;1002262;-76
2024/01/22 05:43:42;;;;;;;141.20;89.20;;;;;;;-6.28;100.00;99792.13;109107;1253;59651;-77
2024/01/22 05:46:08;;;;;;;144.50;90.50;;;;;;;-6.27;100.00;99789.88;109434;1252;70006;-75
2024/01/22 05:48:35;;;;;;;134.50;87.90;;;;;;;-6.23;100.00;99781.47;108661;1253;1002415;-76
2024/01/22 05:51:02;;;;;;;140.00;88.50;;;;;;;-6.21;100.00;99784.10;109403;1254;58990;-77
2024/01/22 05:53:28;;;;;;;142.70;91.80;;;;;;;-6.22;100.00;99779.05;109418;1252;60122;-74
2024/01/22 05:55:55;;;;;;;141.50;90.10;;;;;;;-6.22;100.00;99774.21;109401;1254;67328;-75
2024/01/22 05:58:22;;;;;;;149.40;90.20;;;;;;;-6.21;100.00;99772.34;109395;1252;69849;-74
2024/01/22 06:00:49;;;;;;;136.00;89.00;;;;;;;-6.20;100.00;99765.44;109432;1253;73927;-75
2024/01/22 06:03:15;;;;;;;140.10;90.40;;;;;;;-6.20;100.00;99758.86;109433;1252;58997;-75
2024/01/22 06:05:42;;;;;;;134.30;89.00;;;;;;;-6.19;100.00;99745.03;109417;1253;60517;-76
2024/01/22 06:08:09;;;;;;;130.40;81.00;;;;;;;-6.20;100.00;99738.96;109429;1253;74705;-75
2024/01/22 06:10:35;;;;;;;132.50;87.20;;;;;;;-6.22;100.00;99742.05;109106;1252;60610;-75
2024/01/22 06:13:02;;;;;;;134.50;86.00;;;;;;;-6.23;100.00;99734.79;108680;1254;1002294;-74
2024/01/22 06:15:29;;;;;;;150.50;94.80;;;;;;;-6.23;100.00;99732.54;108442;1252;1003627;-77
2024/01/22 06:17:55;;;;;;;132.90;84.00;;;;;;;-6.22;100.00;99729.96;108683;1252;1002503;-75
2024/01/22 06:20:22;;;;;;;135.20;86.40;;;;;;;-6.20;100.00;99721.85;108659;1252;1002380;-76
2024/01/22 06:22:49;;;;;;;130.60;80.00;;;;;;;-6.19;100.00;99712.17;109370;1253;61203;-76
2024/01/22 06:25:16;;;;;;;131.50;82.70;;;;;;;-6.19;100.00;99705.61;109391;1252;64059;-76
2024/01/22 06:27:44;;;;;;;126.50;80.20;;;;;;;-6.19;100.00;99700.23;109413;1252;59358;-77
2024/01/22 06:30:12;;;;;;;124.80;81.70;;;;;;;-6.21;100.00;99695.04;108457;1252;1002460;-75
2024/01/22 06:32:39;;;;;;;133.50;84.40;;;;;;;-6.21;100.00;99689.67;108667;1252;1002697;-74
2024/01/22 06:35:06;;;;;;;125.80;84.50;;;;;;;-6.19;100.00;99686.77;108704;1252;1002275;-76
2024/01/22 06:37:34;;;;;;;134.10;86.00;;;;;;;-6.14;100.00;99685.77;109268;1253;59148;-74
2024/01/22 06:40:00;;;;;;;135.00;88.70;;;;;;;-6.09;100.00;99690.67;109400;1252;58990;-77
2024/01/22 06:42:29;;;;;;;137.80;88.90;;;;;;;-6.04;100.00;99682.61;109304;1255;59423;-76
2024/01/22 06:44:55;;;;;;;138.30;91.50;;;;;;;-5.98;100.00;99681.27;109410;1252;67075;-77
2024/01/22 06:47:22;;;;;;;134.20;86.70;;;;;;;-5.92;100.00;99677.69;109451;1253;61095;-75
2024/01/22 06:49:49;;;;;;;137.40;88.00;;;;;;;-5.87;100.00;99676.52;109417;1252;65144;-75
2024/01/22 06:52:15;;;;;;;129.50;86.60;;;;;;;-5.83;100.00;99667.90;108639;1252;1002905;-75
2024/01/22 06:54:42;;;;;;;125.30;83.30;;;;;;;-5.79;100.00;99663.96;109441;1251;59025;-76
2024/01/22 06:57:09;;;;;;;136.10;87.80;;;;;;;-5.73;100.00;99663.15;109416;1252;67063;-76
2024/01/22 06:59:35;;;;;;;123.40;82.50;;;;;;;-5.69;100.00;99662.15;108638;1252;1002460;-77
2024/01/22 07:02:02;;;;;;;130.30;83.60;;;;;;;-5.64;100.00;99661.66;108653;1252;1002320;-75
2024/01/22 07:04:29;;;;;;;123.60;82.70;;;;;;;-5.61;100.00;99661.02;109407;1252;59069;-76
2024/01/22 07:06:55;;;;;;;132.40;82.50;;;;;;;-5.59;100.00;99657.56;109290;1253;58891;-76
2024/01/22 07:09:22;;;;;;;134.00;85.20;;;;;;;-5.56;100.00;99651.19;108575;1253;1002565;-76
2024/01/22 07:11:49;;;;;;;131.80;87.30;;;;;;;-5.50;100.00;99647.60;109274;1252;60273;-75
2024/01/22 07:14:16;;;;;;;135.90;86.60;;;;;;;-5.42;100.00;99640.92;109297;1253;63736;-76
2024/01/22 07:16:42;;;;;;;125.30;81.90;;;;;;;-5.30;100.00;99643.25;109095;1252;59554;-76
2024/01/22 07:19:09;;;;;;;128.30;85.00;;;;;;;-5.24;100.00;99636.55;109446;1252;58863;-75
2024/01/22 07:21:35;;;;;;;134.10;84.40;;;;;;;-5.18;100.00;99626.36;109331;1254;65790;-76
2024/01/22 07:24:02;;;;;;;121.40;82.20;;;;;;;-5.08;100.00;99618.27;109404;1252;59769;-76
2024/01/22 07:26:29;;;;;;;133.50;82.70;;;;;;;-4.99;100.00;99612.27;109413;1252;65105;-76
2024/01/22 07:28:55;;;;;;;125.40;84.20;;;;;;;-4.90;100.00;99604.35;109427;1252;58905;-75
2024/01/22 07:31:22;;;;;;;129.30;87.00;;;;;;;-4.82;100.00;99593.12;108534;1252;1003027;-75
2024/01/22 07:33:48;;;;;;;147.50;101.90;;;;;;;-4.74;100.00;99585.88;108611;1252;1002900;-76
2024/01/22 07:36:16;;;;;;;138.80;95.20;;;;;;;-4.62;100.00;99581.06;109437;1252;59015;-75
2024/01/22 07:38:44;;;;;;;133.40;91.20;;;;;;;-4.50;100.00;99577.82;109438;1252;64114;-75
2024/01/22 07:41:10;;;;;;;131.10;89.10;;;;;;;-4.37;100.00;99573.52;109411;1252;58990;-76
2024/01/22 07:43:37;;;;;;;132.70;93.50;;;;;;;-4.24;100.00;99573.19;109458;1252;58895;-76
2024/01/22 07:46:05;;;;;;;135.90;96.40;;;;;;;-4.13;100.00;99570.78;109361;1253;67036;-75
2024/01/22 07:48:31;;;;;;;138.80;95.70;;;;;;;-4.02;100.00;99563.17;109423;1252;60375;-76
2024/01/22 07:50:58;;;;;;;138.20;98.80;;;;;;;-3.91;100.00;99562.48;109441;1253;64078;-75
2024/01/22 07:53:24;;;;;;;133.50;93.20;;;;;;;-3.82;100.00;99556.40;109125;1253;59106;-74
2024/01/22 07:55:51;;;;;;;127.10;88.50;;;;;;;-3.70;100.00;99556.58;109456;1252;58859;-74
2024/01/22 07:58:18;;;;;;;118.80;85.80;;;;;;;-3.55;100.00;99559.00;109390;1252;67019;-75
2024/01/22 08:00:44;;;;;;;125.80;91.40;;;;;;;-3.38;100.00;99557.05;109438;1252;60216;-76
2024/01/22 08:03:11;;;;;;;130.70;93.50;;;;;;;-3.19;100.00;99567.28;109290;1252;64893;-75
2024/01/22 08:05:38;;;;;;;121.50;84.40;;;;;;;-2.98;100.00;99566.17;109426;1252;59713;-77
2024/01/22 08:08:06;;;;;;;113.80;79.20;;;;;;;-2.76;100.00;99556.37;109439;1252;58866;-75
2024/01/22 08:10:33;;;;;;;107.20;77.90;;;;;;;-2.54;100.00;99549.30;109468;1252;66151;-75
2024/01/22 08:12:59;;;;;;;103.00;76.40;;;;;;;-2.33;100.00;99545.70;108662;1253;1002473;-76
2024/01/22 08:15:26;;;;;;;101.50;73.70;;;;;;;-2.12;100.00;99540.86;109458;1252;65134;-75
2024/01/22 08:17:53;;;;;;;94.80;71.80;;;;;;;-1.93;100.00;99535.15;109433;1252;60084;-75
2024/01/22 08:20:19;;;;;;;103.70;74.10;;;;;;;-1.73;100.00;99532.39;109453;1252;59047;-75
2024/01/22 08:22:47;;;;;;;101.30;72.90;;;;;;;-1.54;100.00;99531.36;109426;1252;67119;-75
2024/01/22 08:25:18;;;;;;;100.50;72.90;;;;;;;-1.37;100.00;99521.25;109392;1252;61031;-78
2024/01/22 08:27:46;;;;;;;106.30;75.30;;;;;;;-1.19;100.00;99517.39;109300;1253;64457;-76
2024/01/22 08:30:13;;;;;;;98.20;73.40;;;;;;;-1.04;100.00;99505.02;109297;1253;59054;-75
2024/01/22 08:32:39;;;;;;;97.20;71.90;;;;;;;-0.93;100.00;99504.02;109443;1252;58903;-76
2024/01/22 08:35:06;;;;;;;92.70;67.60;;;;;;;-0.82;100.00;99496.38;109435;1252;66828;-74
2024/01/22 08:37:33;;;;;;;100.70;72.40;;;;;;;-0.67;100.00;99493.55;109421;1252;61267;-80
2024/01/22 08:40:03;;;;;;;100.30;72.80;;;;;;;-0.51;100.00;99492.81;109394;1252;64080;-79
2024/01/22 08:42:32;;;;;;;75.00;52.40;;;;;;;-0.34;100.00;99481.73;109416;1251;59045;-78
2024/01/22 08:44:59;;;;;;;90.50;64.50;;;;;;;-0.16;100.00;99476.59;109309;1254;59066;-78
2024/01/22 08:47:26;;;;;;;95.60;70.90;;;;;;;0.02;100.00;99474.71;109252;1253;66989;-78
2024/01/22 08:49:53;;;;;;;88.40;60.90;;;;;;;0.23;100.00;99475.61;109413;1251;60146;-82
2024/01/22 08:52:19;;;;;;;81.40;56.90;;;;;;;0.43;100.00;99464.58;109153;1256;64081;-78
2024/01/22 08:54:46;;;;;;;83.80;56.60;;;;;;;0.66;100.00;99457.51;109504;1251;59342;-78
2024/01/22 08:57:13;;;;;;;87.20;60.50;;;;;;;0.90;100.00;99452.84;109554;1251;59195;-79
2024/01/22 08:59:39;;;;;;;80.10;58.00;;;;;;;1.12;100.00;99445.03;109513;1251;67072;-78
2024/01/22 09:02:06;;;;;;;74.40;53.00;;;;;;;1.34;100.00;99435.28;109560;1251;60082;-78
2024/01/22 09:04:38;;;;;;;70.10;49.30;;;;;;;1.55;100.00;99431.27;109524;1251;64107;-82
2024/01/22 09:07:04;;;;;;;64.40;45.30;;;;;;;1.80;100.00;99423.17;109521;1251;59516;-85
2024/01/22 09:09:31;;;;;;;49.30;30.60;;;;;;;2.01;100.00;99424.91;109536;1251;58874;-81
2024/01/22 09:11:58;;;;;;;37.50;24.40;;;;;;;2.25;100.00;99423.25;109516;1251;66979;-79
2024/01/22 09:14:24;;;;;;;47.50;26.80;;;;;;;2.50;100.00;99422.58;109533;1251;61129;-81
2024/01/22 09:16:51;;;;;;;43.30;24.90;;;;;;;2.74;100.00;99423.31;109515;1251;64060;-82
2024/01/22 09:19:18;;;;;;;42.70;25.10;;;;;;;2.99;100.00;99421.55;109545;1251;59070;-83
2024/01/22 09:21:45;;;;;;;42.70;23.10;;;;;;;3.23;100.00;99412.05;109538;1251;59036;-80
2024/01/22 09:24:12;;;;;;;32.80;21.30;;;;;;;3.45;100.00;99406.98;109536;1251;66928;-82
2024/01/22 09:26:38;;;;;;;33.20;21.60;;;;;;;3.61;100.00;99396.45;109546;1251;61043;-79
2024/01/22 09:29:05;;;;;;;35.80;21.90;;;;;;;3.77;100.00;99387.69;109340;1251;65501;-81
2024/01/22 09:31:34;;;;;;;29.80;19.10;;;;;;;3.91;100.00;99391.79;109537;1251;58959;-80
2024/01/22 09:34:00;;;;;;;44.00;26.40;;;;;;;4.06;100.00;99395.16;109559;1251;59158;-80
2024/01/22 09:36:27;;;;;;;41.30;23.60;;;;;;;4.24;100.00;99398.75;109542;1251;67151;-81
2024/01/22 09:38:54;;;;;;;41.10;22.00;;;;;;;4.38;100.00;99397.77;109566;1251;61450;-81
2024/01/22 09:41:20;;;;;;;45.00;23.40;;;;;;;4.52;100.00;99392.48;109541;1251;65088;-80
2024/01/22 09:43:48;;;;;;;39.60;22.80;;;;;;;4.66;100.00;99391.11;109319;1250;59141;-80
2024/01/22 09:46:16;;;;;;;33.80;22.60;;;;;;;4.81;100.00;99390.55;109578;1251;58835;-82
2024/01/22 09:48:43;;;;;;;33.70;21.40;;;;;;;4.95;100.00;99387.22;109354;1251;65876;-81
2024/01/22 09:51:10;;;;;;;38.60;22.20;;;;;;;5.05;100.00;99381.73;109560;1250;61051;-81
2024/01/22 09:53:39;;;;;;;41.80;26.50;;;;;;;5.14;100.00;99384.73;109587;1251;65247;-79
2024/01/22 09:56:07;;;;;;;40.80;25.70;;;;;;;5.24;100.00;99379.08;109507;1250;58968;-80
2024/01/22 09:58:41;;;;;;;37.60;24.30;;;;;;;5.35;100.00;99376.90;109510;1251;59346;-81
2024/01/22 10:01:10;;;;;;;25.10;16.80;;;;;;;5.48;100.00;99374.10;109445;1251;112802;-81
2024/01/22 10:03:39;;;;;;;14.30;10.30;;;;;;;5.61;100.00;99369.84;109574;1251;60294;-81
2024/01/22 10:06:05;;;;;;;9.30;6.90;;;;;;;5.79;100.00;99365.95;109525;1251;63711;-81
2024/01/22 10:08:32;;;;;;;10.40;6.40;;;;;;;5.98;100.00;99368.18;109544;1251;58967;-80
2024/01/22 10:10:59;;;;;;;8.10;5.00;;;;;;;6.14;100.00;99368.19;109537;1251;59189;-80
2024/01/22 10:13:25;;;;;;;5.20;3.90;;;;;;;6.30;100.00;99367.66;109585;1251;66028;-80
2024/01/22 10:15:52;;;;;;;5.40;2.80;;;;;;;6.46;100.00;99368.38;109537;1251;60057;-81
2024/01/22 10:18:18;;;;;;;3.80;2.70;;;;;;;6.61;100.00;99374.42;109555;1251;65148;-81
2024/01/22 10:20:46;;;;;;;4.20;2.30;;;;;;;6.78;100.00;99374.39;109532;1251;58931;-81
2024/01/22 10:23:16;;;;;;;4.20;2.70;;;;;;;6.91;100.00;99369.17;109416;1251;59144;-80
2024/01/22 10:25:42;;;;;;;3.50;2.20;;;;;;;7.02;99.20;99368.88;109548;1251;66989;-80
2024/01/22 10:28:14;;;;;;;3.40;2.00;;;;;;;7.11;94.22;99366.86;109363;1251;59998;-80
2024/01/22 10:30:41;;;;;;;3.10;2.30;;;;;;;7.19;81.24;99368.92;109127;1251;62930;-80
2024/01/22 10:33:10;;;;;;;3.20;2.20;;;;;;;7.28;74.65;99374.20;109450;1251;58933;-76
2024/01/22 10:35:36;;;;;;;6.50;3.00;;;;;;;7.34;70.73;99376.39;109523;1251;59053;-76
2024/01/22 10:38:07;;;;;;;3.40;1.90;;;;;;;7.39;69.23;99374.90;109572;1251;66953;-77
2024/01/22 10:40:34;;;;;;;2.20;1.90;;;;;;;7.42;66.35;99370.67;109579;1251;60132;-78
2024/01/22 10:43:26;;;;;;;3.80;2.00;;;;;;;7.48;65.61;99365.09;109539;1251;63840;-77
2024/01/22 10:45:55;;;;;;;2.90;1.90;;;;;;;7.53;63.75;99364.70;109507;1251;58970;-75
2024/01/22 10:48:28;;;;;;;4.60;2.50;;;;;;;7.56;63.83;99368.60;109506;1250;59230;-76
2024/01/22 10:50:55;;;;;;;4.70;2.40;;;;;;;7.61;64.20;99367.13;109559;1251;66776;-76
2024/01/22 10:53:21;;;;;;;5.10;3.20;;;;;;;7.68;63.98;99365.70;109564;1250;61158;-85